createdAt,value
2018-12-05T00:01:05.032Z,101324.00
2018-12-05T00:03:33.252Z,101321.00
2018-12-05T00:06:01.456Z,101333.00
2018-12-05T00:08:29.629Z,101336.00
2018-12-05T00:10:57.828Z,101339.00
2018-12-05T00:13:25.979Z,101336.00
2018-12-05T00:15:54.135Z,101351.00
2018-12-05T00:18:22.338Z,101360.00
2018-12-05T00:20:50.507Z,101356.00
2018-12-05T00:23:18.681Z,101349.00
2018-12-05T00:25:46.880Z,101363.00
2018-12-05T00:28:15.054Z,101362.00
2018-12-05T00:30:43.261Z,101359.00
2018-12-05T00:33:11.456Z,101359.00
2018-12-05T00:35:39.670Z,101349.00
2018-12-05T00:38:07.846Z,101361.00
2018-12-05T00:40:36.099Z,101361.00
2018-12-05T00:43:04.350Z,101365.00
2018-12-05T00:45:32.511Z,101361.00
2018-12-05T00:48:00.888Z,101375.00
2018-12-05T00:50:29.053Z,101368.00
2018-12-05T00:52:57.209Z,101374.00
2018-12-05T00:55:25.433Z,101375.00
2018-12-05T00:57:54.761Z,101381.00
2018-12-05T01:00:22.957Z,101389.00
2018-12-05T01:02:51.256Z,101387.00
2018-12-05T01:05:19.465Z,101394.00
2018-12-05T01:07:47.624Z,101397.00
2018-12-05T01:10:15.822Z,101398.00
2018-12-05T01:12:44.024Z,101404.00
2018-12-05T01:15:12.228Z,101408.00
2018-12-05T01:17:40.420Z,101405.00
2018-12-05T01:20:08.666Z,101404.00
2018-12-05T01:22:37.033Z,101406.00
2018-12-05T01:25:05.745Z,101405.00
2018-12-05T01:27:33.909Z,101406.00
2018-12-05T01:30:02.112Z,101403.00
2018-12-05T01:32:30.309Z,101413.00
2018-12-05T01:34:58.463Z,101407.00
2018-12-05T01:37:26.753Z,101406.00
2018-12-05T01:39:55.085Z,101409.00
2018-12-05T01:42:23.261Z,101407.00
2018-12-05T01:44:55.162Z,101411.00
2018-12-05T01:47:23.372Z,101412.00
2018-12-05T01:49:51.544Z,101421.00
2018-12-05T01:52:19.949Z,101419.00
2018-12-05T01:54:48.103Z,101420.00
2018-12-05T01:57:16.262Z,101420.00
2018-12-05T01:59:44.585Z,101424.00
2018-12-05T02:02:12.849Z,101426.00
2018-12-05T02:04:41.008Z,101432.00
2018-12-05T02:07:09.208Z,101433.00
2018-12-05T02:09:37.369Z,101441.00
2018-12-05T02:12:05.576Z,101433.00
2018-12-05T02:14:33.817Z,101437.00
2018-12-05T02:17:01.975Z,101438.00
2018-12-05T02:19:30.131Z,101440.00
2018-12-05T02:21:58.341Z,101444.00
2018-12-05T02:24:26.915Z,101439.00
2018-12-05T02:26:55.103Z,101436.00
2018-12-05T02:29:25.254Z,101440.00
2018-12-05T02:31:53.412Z,101437.00
2018-12-05T02:34:21.591Z,101444.00
2018-12-05T02:36:49.789Z,101444.00
2018-12-05T02:39:17.965Z,101445.00
2018-12-05T02:41:46.136Z,101447.00
2018-12-05T02:44:14.354Z,101444.00
2018-12-05T02:46:42.539Z,101445.00
2018-12-05T02:49:10.705Z,101445.00
2018-12-05T02:51:38.890Z,101456.00
2018-12-05T02:54:07.062Z,101457.00
2018-12-05T02:56:35.233Z,101462.00
2018-12-05T02:59:03.464Z,101469.00
2018-12-05T03:01:31.731Z,101479.00
2018-12-05T03:03:59.905Z,101490.00
2018-12-05T03:06:28.158Z,101488.00
2018-12-05T03:08:56.331Z,101492.00
2018-12-05T03:11:24.498Z,101494.00
2018-12-05T03:13:52.693Z,101492.00
2018-12-05T03:16:20.869Z,101503.00
2018-12-05T03:18:49.028Z,101497.00
2018-12-05T03:21:17.264Z,101504.00
2018-12-05T03:23:45.432Z,101503.00
2018-12-05T03:26:13.650Z,101502.00
2018-12-05T03:28:41.857Z,101493.00
2018-12-05T03:31:10.031Z,101495.00
2018-12-05T03:33:38.205Z,101505.00
2018-12-05T03:36:06.417Z,101502.00
2018-12-05T03:38:34.597Z,101500.00
2018-12-05T03:41:02.785Z,101497.00
2018-12-05T03:43:30.985Z,101499.00
2018-12-05T03:45:59.154Z,101504.00
2018-12-05T03:48:27.330Z,101502.00
2018-12-05T03:50:55.529Z,101512.00
2018-12-05T03:53:23.689Z,101511.00
2018-12-05T03:55:51.946Z,101508.00
2018-12-05T03:58:20.222Z,101508.00
2018-12-05T04:00:48.522Z,101514.00
2018-12-05T04:03:16.688Z,101519.00
2018-12-05T04:05:44.890Z,101527.00
2018-12-05T04:08:13.045Z,101530.00
2018-12-05T04:10:41.209Z,101529.00
2018-12-05T04:13:09.406Z,101526.00
2018-12-05T04:15:37.616Z,101537.00
2018-12-05T04:18:05.790Z,101526.00
2018-12-05T04:20:34.020Z,101534.00
2018-12-05T04:23:02.186Z,101534.00
2018-12-05T04:25:30.349Z,101541.00
2018-12-05T04:27:58.552Z,101535.00
2018-12-05T04:30:26.768Z,101542.00
2018-12-05T04:32:54.943Z,101543.00
2018-12-05T04:35:23.190Z,101546.00
2018-12-05T04:37:52.716Z,101553.00
2018-12-05T04:40:21.055Z,101554.00
2018-12-05T04:42:49.331Z,101554.00
2018-12-05T04:45:17.494Z,101549.00
2018-12-05T04:47:45.750Z,101561.00
2018-12-05T04:50:13.976Z,101566.00
2018-12-05T04:52:42.200Z,101576.00
2018-12-05T04:55:10.355Z,101571.00
2018-12-05T04:57:38.552Z,101581.00
2018-12-05T05:00:07.836Z,101582.00
2018-12-05T05:02:36.058Z,101581.00
2018-12-05T05:05:05.392Z,101586.00
2018-12-05T05:07:33.600Z,101581.00
2018-12-05T05:10:01.772Z,101596.00
2018-12-05T05:12:29.968Z,101587.00
2018-12-05T05:14:58.138Z,101602.00
2018-12-05T05:17:26.286Z,101592.00
2018-12-05T05:19:54.548Z,101598.00
2018-12-05T05:22:22.695Z,101593.00
2018-12-05T05:24:50.873Z,101605.00
2018-12-05T05:27:19.068Z,101602.00
2018-12-05T05:29:47.424Z,101603.00
2018-12-05T05:32:15.593Z,101614.00
2018-12-05T05:34:43.794Z,101602.00
2018-12-05T05:37:12.000Z,101612.00
2018-12-05T05:39:40.160Z,101605.00
2018-12-05T05:42:08.359Z,101604.00
2018-12-05T05:44:36.538Z,101609.00
2018-12-05T05:47:04.761Z,101609.00
2018-12-05T05:49:32.947Z,101609.00
2018-12-05T05:52:01.121Z,101614.00
2018-12-05T05:54:29.300Z,101617.00
2018-12-05T05:56:57.514Z,101616.00
2018-12-05T05:59:25.682Z,101604.00
2018-12-05T06:01:54.590Z,101624.00
2018-12-05T06:04:22.792Z,101622.00
2018-12-05T06:06:51.029Z,101627.00
2018-12-05T06:09:19.195Z,101636.00
2018-12-05T06:11:47.452Z,101631.00
2018-12-05T06:14:15.670Z,101633.00
2018-12-05T06:16:43.839Z,101639.00
2018-12-05T06:19:12.033Z,101641.00
2018-12-05T06:21:40.192Z,101633.00
2018-12-05T06:24:08.362Z,101641.00
2018-12-05T06:26:36.581Z,101653.00
2018-12-05T06:29:04.875Z,101647.00
2018-12-05T06:31:33.084Z,101649.00
2018-12-05T06:34:01.293Z,101657.00
2018-12-05T06:36:29.466Z,101670.00
2018-12-05T06:38:59.440Z,101662.00
2018-12-05T06:41:27.859Z,101657.00
2018-12-05T06:43:56.034Z,101668.00
2018-12-05T06:46:24.209Z,101662.00
2018-12-05T06:48:52.401Z,101668.00
2018-12-05T06:51:20.593Z,101677.00
2018-12-05T06:53:48.769Z,101679.00
2018-12-05T06:56:16.969Z,101684.00
2018-12-05T06:58:45.132Z,101684.00
2018-12-05T07:01:13.345Z,101690.00
2018-12-05T07:03:41.599Z,101689.00
2018-12-05T07:06:09.795Z,101690.00
2018-12-05T07:08:37.974Z,101692.00
2018-12-05T07:11:06.169Z,101685.00
2018-12-05T07:13:34.339Z,101693.00
2018-12-05T07:16:02.497Z,101695.00
2018-12-05T07:18:30.696Z,101702.00
2018-12-05T07:20:58.855Z,101710.00
2018-12-05T07:23:27.038Z,101715.00
2018-12-05T07:25:55.240Z,101715.00
2018-12-05T07:28:23.396Z,101706.00
2018-12-05T07:30:51.560Z,101710.00
2018-12-05T07:33:19.802Z,101720.00
2018-12-05T07:35:47.963Z,101719.00
2018-12-05T07:38:19.419Z,101717.00
2018-12-05T07:40:46.521Z,101723.00
2018-12-05T07:43:14.695Z,101726.00
2018-12-05T07:45:42.861Z,101719.00
2018-12-05T07:48:11.088Z,101726.00
2018-12-05T07:50:39.257Z,101716.00
2018-12-05T07:53:07.437Z,101731.00
2018-12-05T07:55:35.655Z,101731.00
2018-12-05T07:58:03.954Z,101730.00
2018-12-05T08:00:32.144Z,101744.00
2018-12-05T08:03:01.796Z,101746.00
2018-12-05T08:05:30.194Z,101743.00
2018-12-05T08:07:58.368Z,101747.00
2018-12-05T08:10:26.582Z,101749.00
2018-12-05T08:12:54.766Z,101752.00
2018-12-05T08:15:22.993Z,101750.00
2018-12-05T08:17:51.235Z,101753.00
2018-12-05T08:20:19.459Z,101753.00
2018-12-05T08:22:47.637Z,101758.00
2018-12-05T08:25:15.852Z,101761.00
2018-12-05T08:27:44.071Z,101765.00
2018-12-05T08:30:12.272Z,101765.00
2018-12-05T08:32:40.503Z,101764.00
2018-12-05T08:35:08.746Z,101772.00
2018-12-05T08:37:36.912Z,101771.00
2018-12-05T08:40:05.833Z,101772.00
2018-12-05T08:42:34.013Z,101769.00
2018-12-05T08:45:02.179Z,101767.00
2018-12-05T08:47:33.764Z,101770.00
2018-12-05T08:50:00.696Z,101782.00
2018-12-05T08:52:28.859Z,101771.00
2018-12-05T08:54:57.052Z,101772.00
2018-12-05T08:57:25.261Z,101772.00
2018-12-05T08:59:53.421Z,101777.00
2018-12-05T09:02:23.068Z,101778.00
2018-12-05T09:04:51.468Z,101789.00
2018-12-05T09:07:19.631Z,101790.00
2018-12-05T09:09:47.825Z,101788.00
2018-12-05T09:12:15.996Z,101787.00
2018-12-05T09:14:44.160Z,101795.00
2018-12-05T09:17:12.407Z,101803.00
2018-12-05T09:19:40.576Z,101799.00
2018-12-05T09:22:08.756Z,101796.00
2018-12-05T09:24:36.954Z,101811.00
2018-12-05T09:27:05.169Z,101808.00
2018-12-05T09:29:33.353Z,101803.00
2018-12-05T09:32:01.548Z,101803.00
2018-12-05T09:34:29.770Z,101802.00
2018-12-05T09:36:57.965Z,101803.00
2018-12-05T09:39:26.224Z,101808.00
2018-12-05T09:41:54.632Z,101805.00
2018-12-05T09:44:22.794Z,101800.00
2018-12-05T09:46:51.006Z,101798.00
2018-12-05T09:49:19.159Z,101801.00
2018-12-05T09:51:47.320Z,101800.00
2018-12-05T09:54:15.512Z,101791.00
2018-12-05T09:56:43.683Z,101789.00
2018-12-05T09:59:11.848Z,101788.00
2018-12-05T10:01:40.090Z,101781.00
2018-12-05T10:04:08.262Z,101783.00
2018-12-05T10:06:36.438Z,101784.00
2018-12-05T10:09:07.459Z,101781.00
2018-12-05T10:11:35.667Z,101776.00
2018-12-05T10:14:03.906Z,101772.00
2018-12-05T10:16:32.111Z,101773.00
2018-12-05T10:19:00.277Z,101769.00
2018-12-05T10:21:28.594Z,101768.00
2018-12-05T10:23:56.814Z,101766.00
2018-12-05T10:26:25.001Z,101758.00
2018-12-05T10:28:53.197Z,101757.00
2018-12-05T10:31:21.388Z,101760.00
2018-12-05T10:33:49.561Z,101750.00
2018-12-05T10:36:17.734Z,101753.00
2018-12-05T10:38:46.063Z,101752.00
2018-12-05T10:41:14.891Z,101752.00
2018-12-05T10:43:43.064Z,101748.00
2018-12-05T10:46:11.260Z,101746.00
2018-12-05T10:48:40.640Z,101747.00
2018-12-05T10:51:09.055Z,101746.00
2018-12-05T10:53:37.255Z,101743.00
2018-12-05T10:56:05.506Z,101754.00
2018-12-05T10:58:33.674Z,101751.00
2018-12-05T11:01:07.503Z,101744.00
2018-12-05T11:03:35.682Z,101737.00
2018-12-05T11:06:09.475Z,101741.00
2018-12-05T11:08:43.269Z,101745.00
2018-12-05T11:11:17.038Z,101748.00
2018-12-05T11:13:50.691Z,101742.00
2018-12-05T11:16:24.628Z,101742.00
2018-12-05T11:18:58.353Z,101738.00
2018-12-05T11:21:32.226Z,101737.00
2018-12-05T11:24:11.125Z,101735.00
2018-12-05T11:26:39.697Z,101739.00
2018-12-05T11:29:07.962Z,101735.00
2018-12-05T11:31:36.153Z,101737.00
2018-12-05T11:34:04.463Z,101739.00
2018-12-05T11:36:32.637Z,101743.00
2018-12-05T11:39:00.795Z,101741.00
2018-12-05T11:41:29.032Z,101737.00
2018-12-05T11:43:57.343Z,101743.00
2018-12-05T11:46:25.526Z,101741.00
2018-12-05T11:48:53.722Z,101739.00
2018-12-05T11:51:21.907Z,101737.00
2018-12-05T11:53:50.186Z,101745.00
2018-12-05T11:56:18.420Z,101743.00
2018-12-05T11:58:46.634Z,101745.00
2018-12-05T12:01:14.809Z,101744.00
2018-12-05T12:03:43.026Z,101741.00
2018-12-05T12:06:11.273Z,101737.00
2018-12-05T12:08:39.440Z,101738.00
2018-12-05T12:11:07.825Z,101743.00
2018-12-05T12:13:35.987Z,101738.00
2018-12-05T12:16:04.325Z,101738.00
2018-12-05T12:18:32.534Z,101753.00
2018-12-05T12:21:00.700Z,101751.00
2018-12-05T12:23:28.944Z,101756.00
2018-12-05T12:25:57.123Z,101757.00
2018-12-05T12:28:25.292Z,101753.00
2018-12-05T12:30:53.640Z,101753.00
2018-12-05T12:33:21.809Z,101749.00
2018-12-05T12:35:50.021Z,101739.00
2018-12-05T12:38:18.208Z,101736.00
2018-12-05T12:40:46.809Z,101735.00
2018-12-05T12:43:14.977Z,101722.00
2018-12-05T12:45:43.300Z,101716.00
2018-12-05T12:48:11.478Z,101721.00
2018-12-05T12:50:39.656Z,101717.00
2018-12-05T12:53:07.883Z,101714.00
2018-12-05T12:55:36.040Z,101715.00
2018-12-05T12:58:04.333Z,101720.00
2018-12-05T13:00:32.549Z,101715.00
2018-12-05T13:03:00.714Z,101716.00
2018-12-05T13:05:28.890Z,101713.00
2018-12-05T13:07:57.096Z,101719.00
2018-12-05T13:10:25.264Z,101712.00
2018-12-05T13:12:53.581Z,101712.00
2018-12-05T13:15:21.782Z,101720.00
2018-12-05T13:17:50.001Z,101717.00
2018-12-05T13:20:18.174Z,101720.00
2018-12-05T13:22:46.396Z,101716.00
2018-12-05T13:25:14.638Z,101720.00
2018-12-05T13:27:42.808Z,101719.00
2018-12-05T13:30:12.504Z,101724.00
2018-12-05T13:32:40.747Z,101717.00
2018-12-05T13:35:09.043Z,101716.00
2018-12-05T13:37:37.397Z,101724.00
2018-12-05T13:40:07.103Z,101718.00
2018-12-05T13:42:35.461Z,101724.00
2018-12-05T13:45:04.278Z,101728.00
2018-12-05T13:47:32.503Z,101721.00
2018-12-05T13:50:00.751Z,101722.00
2018-12-05T13:52:28.973Z,101716.00
2018-12-05T13:54:57.202Z,101709.00
2018-12-05T13:57:25.476Z,101707.00
2018-12-05T13:59:53.667Z,101711.00
2018-12-05T14:02:21.841Z,101712.00
2018-12-05T14:04:50.032Z,101716.00
2018-12-05T14:07:18.569Z,101714.00
2018-12-05T14:09:46.897Z,101718.00
2018-12-05T14:12:17.014Z,101716.00
2018-12-05T14:14:45.246Z,101722.00
2018-12-05T14:17:13.446Z,101715.00
2018-12-05T14:19:41.612Z,101717.00
2018-12-05T14:22:09.842Z,101712.00
2018-12-05T14:24:38.050Z,101715.00
2018-12-05T14:27:06.217Z,101707.00
2018-12-05T14:29:34.661Z,101707.00
2018-12-05T14:32:02.862Z,101710.00
2018-12-05T14:34:31.020Z,101708.00
2018-12-05T14:36:59.390Z,101698.00
2018-12-05T14:39:27.591Z,101715.00
2018-12-05T14:41:55.738Z,101706.00
2018-12-05T14:44:24.326Z,101702.00
2018-12-05T14:46:52.497Z,101694.00
2018-12-05T14:49:20.669Z,101697.00
2018-12-05T14:51:49.140Z,101701.00
2018-12-05T14:54:17.307Z,101699.00
2018-12-05T14:56:45.503Z,101699.00
2018-12-05T14:59:13.700Z,101694.00
2018-12-05T15:01:41.868Z,101691.00
2018-12-05T15:04:10.082Z,101683.00
2018-12-05T15:06:38.297Z,101682.00
2018-12-05T15:09:08.183Z,101676.00
2018-12-05T15:11:36.388Z,101672.00
2018-12-05T15:14:04.853Z,101670.00
2018-12-05T15:16:33.057Z,101660.00
2018-12-05T15:19:01.222Z,101671.00
2018-12-05T15:21:29.413Z,101675.00
2018-12-05T15:23:57.591Z,101672.00
2018-12-05T15:26:25.765Z,101671.00
2018-12-05T15:28:54.091Z,101675.00
2018-12-05T15:31:22.251Z,101683.00
2018-12-05T15:33:50.545Z,101691.00
2018-12-05T15:36:18.807Z,101705.00
2018-12-05T15:38:46.975Z,101694.00
2018-12-05T15:41:15.203Z,101690.00
2018-12-05T15:43:44.268Z,101697.00
2018-12-05T15:46:12.621Z,101697.00
2018-12-05T15:48:40.783Z,101691.00
2018-12-05T15:51:09.033Z,101703.00
2018-12-05T15:53:37.214Z,101707.00
2018-12-05T15:56:05.382Z,101707.00
2018-12-05T15:58:34.073Z,101699.00
2018-12-05T16:01:02.286Z,101693.00
2018-12-05T16:03:30.492Z,101693.00
2018-12-05T16:05:58.806Z,101705.00
2018-12-05T16:08:26.978Z,101704.00
2018-12-05T16:10:55.161Z,101703.00
2018-12-05T16:13:23.381Z,101703.00
2018-12-05T16:15:51.557Z,101702.00
2018-12-05T16:18:19.720Z,101713.00
2018-12-05T16:20:47.911Z,101711.00
2018-12-05T16:23:16.129Z,101706.00
2018-12-05T16:25:44.468Z,101708.00
2018-12-05T16:28:12.733Z,101699.00
2018-12-05T16:30:40.910Z,101710.00
2018-12-05T16:33:09.137Z,101703.00
2018-12-05T16:35:37.357Z,101703.00
2018-12-05T16:38:05.575Z,101715.00
2018-12-05T16:40:33.759Z,101706.00
2018-12-05T16:43:02.010Z,101713.00
2018-12-05T16:45:30.183Z,101713.00
2018-12-05T16:47:58.475Z,101714.00
2018-12-05T16:50:26.675Z,101707.00
2018-12-05T16:52:54.881Z,101718.00
2018-12-05T16:55:23.053Z,101710.00
2018-12-05T16:57:51.270Z,101710.00
2018-12-05T17:00:19.446Z,101701.00
2018-12-05T17:02:47.628Z,101702.00
2018-12-05T17:05:15.908Z,101707.00
2018-12-05T17:07:44.113Z,101712.00
2018-12-05T17:10:12.336Z,101709.00
2018-12-05T17:12:40.709Z,101715.00
2018-12-05T17:15:09.066Z,101717.00
2018-12-05T17:17:37.248Z,101714.00
2018-12-05T17:20:06.360Z,101708.00
2018-12-05T17:22:34.549Z,101712.00
2018-12-05T17:25:02.712Z,101711.00
2018-12-05T17:27:30.963Z,101703.00
2018-12-05T17:29:59.137Z,101705.00
2018-12-05T17:32:27.357Z,101700.00
2018-12-05T17:34:55.604Z,101703.00
2018-12-05T17:37:23.786Z,101698.00
2018-12-05T17:39:51.958Z,101696.00
2018-12-05T17:42:21.953Z,101706.00
2018-12-05T17:44:50.387Z,101689.00
2018-12-05T17:47:18.566Z,101684.00
2018-12-05T17:49:46.849Z,101686.00
2018-12-05T17:52:15.020Z,101684.00
2018-12-05T17:54:43.180Z,101682.00
2018-12-05T17:57:11.382Z,101683.00
2018-12-05T17:59:39.625Z,101675.00
2018-12-05T18:02:07.806Z,101682.00
2018-12-05T18:04:36.054Z,101675.00
2018-12-05T18:07:04.255Z,101682.00
2018-12-05T18:09:32.412Z,101693.00
2018-12-05T18:12:00.609Z,101681.00
2018-12-05T18:14:28.817Z,101683.00
2018-12-05T18:16:57.008Z,101685.00
2018-12-05T18:19:25.274Z,101703.00
2018-12-05T18:21:53.501Z,101716.00
2018-12-05T18:24:21.777Z,101717.00
2018-12-05T18:26:49.975Z,101717.00
2018-12-05T18:29:18.144Z,101694.00
2018-12-05T18:31:46.348Z,101690.00
2018-12-05T18:34:14.558Z,101683.00
2018-12-05T18:36:42.767Z,101694.00
2018-12-05T18:39:11.016Z,101691.00
2018-12-05T18:41:39.285Z,101708.00
2018-12-05T18:44:07.706Z,101709.00
2018-12-05T18:46:35.955Z,101701.00
2018-12-05T18:49:04.249Z,101689.00
2018-12-05T18:51:32.494Z,101682.00
2018-12-05T18:54:00.704Z,101676.00
2018-12-05T18:56:28.921Z,101668.00
2018-12-05T18:58:57.141Z,101670.00
2018-12-05T19:01:25.314Z,101682.00
2018-12-05T19:03:53.488Z,101685.00
2018-12-05T19:06:21.694Z,101679.00
2018-12-05T19:08:49.895Z,101668.00
2018-12-05T19:11:18.215Z,101664.00
2018-12-05T19:13:51.937Z,101663.00
2018-12-05T19:16:20.348Z,101659.00
2018-12-05T19:18:48.585Z,101650.00
2018-12-05T19:21:16.958Z,101660.00
2018-12-05T19:23:47.099Z,101648.00
2018-12-05T19:26:15.592Z,101641.00
2018-12-05T19:28:43.800Z,101643.00
2018-12-05T19:31:19.206Z,101639.00
2018-12-05T19:33:42.622Z,101638.00
2018-12-05T19:36:10.920Z,101646.00
2018-12-05T19:38:39.259Z,101642.00
2018-12-05T19:41:07.704Z,101645.00
2018-12-05T19:43:35.949Z,101638.00
2018-12-05T19:46:04.410Z,101637.00
2018-12-05T19:48:34.540Z,101637.00
2018-12-05T19:51:02.782Z,101642.00
2018-12-05T19:53:30.993Z,101649.00
2018-12-05T19:55:59.846Z,101660.00
2018-12-05T19:58:28.241Z,101650.00
2018-12-05T20:00:56.539Z,101647.00
2018-12-05T20:03:24.944Z,101654.00
2018-12-05T20:05:53.436Z,101643.00
2018-12-05T20:08:23.472Z,101651.00
2018-12-05T20:10:52.602Z,101651.00
2018-12-05T20:13:20.887Z,101655.00
2018-12-05T20:15:49.321Z,101661.00
2018-12-05T20:18:18.165Z,101659.00
2018-12-05T20:20:46.429Z,101652.00
2018-12-05T20:23:14.893Z,101654.00
2018-12-05T20:25:43.266Z,101650.00
2018-12-05T20:28:12.580Z,101645.00
2018-12-05T20:30:40.885Z,101641.00
2018-12-05T20:33:09.146Z,101644.00
2018-12-05T20:35:37.437Z,101644.00
2018-12-05T20:38:06.361Z,101640.00
2018-12-05T20:40:35.479Z,101637.00
2018-12-05T20:43:03.854Z,101636.00
2018-12-05T20:45:32.145Z,101628.00
2018-12-05T20:48:00.589Z,101637.00
2018-12-05T20:50:28.887Z,101637.00
2018-12-05T20:52:57.964Z,101641.00
2018-12-05T20:55:26.434Z,101627.00
2018-12-05T20:57:54.654Z,101626.00
2018-12-05T21:00:23.831Z,101636.00
2018-12-05T21:02:53.082Z,101631.00
2018-12-05T21:05:21.606Z,101627.00
2018-12-05T21:07:49.999Z,101620.00
2018-12-05T21:10:19.947Z,101617.00
2018-12-05T21:12:48.315Z,101605.00
2018-12-05T21:15:16.697Z,101605.00
2018-12-05T21:17:45.344Z,101605.00
2018-12-05T21:20:14.715Z,101598.00
2018-12-05T21:22:47.183Z,101601.00
2018-12-05T21:25:25.169Z,101604.00
2018-12-05T21:27:54.335Z,101585.00
2018-12-05T21:30:22.725Z,101593.00
2018-12-05T21:32:55.093Z,101588.00
2018-12-05T21:35:25.221Z,101594.00
2018-12-05T21:37:53.508Z,101583.00
2018-12-05T21:40:24.037Z,101584.00
2018-12-05T21:42:52.352Z,101579.00
2018-12-05T21:45:20.711Z,101588.00
2018-12-05T21:47:49.815Z,101584.00
2018-12-05T21:50:47.873Z,101588.00
2018-12-05T21:53:16.117Z,101584.00
2018-12-05T21:55:44.369Z,101596.00
2018-12-05T21:58:13.520Z,101589.00
2018-12-05T22:00:42.261Z,101598.00
2018-12-05T22:03:12.548Z,101601.00
2018-12-05T22:05:41.567Z,101583.00
2018-12-05T22:08:09.862Z,101583.00
2018-12-05T22:10:38.065Z,101578.00
2018-12-05T22:13:08.501Z,101573.00
2018-12-05T22:15:36.770Z,101580.00
2018-12-05T22:18:05.009Z,101573.00
2018-12-05T22:20:33.336Z,101565.00
2018-12-05T22:23:01.547Z,101575.00
2018-12-05T22:25:30.142Z,101578.00
2018-12-05T22:27:58.413Z,101571.00
2018-12-05T22:30:27.498Z,101563.00
2018-12-05T22:32:55.823Z,101568.00
2018-12-05T22:35:24.749Z,101565.00
2018-12-05T22:37:53.663Z,101553.00
2018-12-05T22:40:21.973Z,101548.00
2018-12-05T22:42:50.830Z,101549.00
2018-12-05T22:45:19.254Z,101543.00
2018-12-05T22:47:47.589Z,101545.00
2018-12-05T22:50:15.887Z,101537.00
2018-12-05T22:52:44.245Z,101536.00
2018-12-05T22:55:12.549Z,101531.00
2018-12-05T22:57:40.785Z,101536.00
2018-12-05T23:00:14.908Z,101538.00
2018-12-05T23:02:43.169Z,101535.00
2018-12-05T23:05:11.445Z,101536.00
2018-12-05T23:07:39.725Z,101540.00
2018-12-05T23:10:08.092Z,101538.00
2018-12-05T23:12:36.372Z,101532.00
2018-12-05T23:15:05.714Z,101525.00
2018-12-05T23:17:33.988Z,101524.00
2018-12-05T23:20:02.186Z,101520.00
2018-12-05T23:22:30.542Z,101515.00
2018-12-05T23:24:59.051Z,101514.00
2018-12-05T23:27:27.363Z,101512.00
2018-12-05T23:29:55.639Z,101510.00
2018-12-05T23:32:23.914Z,101506.00
2018-12-05T23:34:52.142Z,101498.00
2018-12-05T23:37:20.465Z,101503.00
2018-12-05T23:39:48.739Z,101490.00
2018-12-05T23:42:17.012Z,101482.00
2018-12-05T23:44:45.308Z,101474.00
2018-12-05T23:47:13.600Z,101468.00
2018-12-05T23:49:41.836Z,101460.00
2018-12-05T23:52:10.052Z,101456.00
2018-12-05T23:54:38.421Z,101462.00
2018-12-05T23:57:06.702Z,101456.00
2018-12-05T23:59:35.033Z,101455.00
